sensor_id;sensor_type;location;lat;lon;timestamp;pressure;altitude;pressure_sealevel;temperature;humidity
46111;BME280;31849;55.992;37.252;2022-10-17T00:05:05;100190.72;;;5.99;54.74
46111;BME280;31849;55.992;37.252;2022-10-17T00:10:08;100165.34;;;5.86;54.39
46111;BME280;31849;55.992;37.252;2022-10-17T00:15:16;100176.06;;;5.98;54.67
46111;BME280;31849;55.992;37.252;2022-10-17T00:20:21;100173.38;;;5.95;54.00
46111;BME280;31849;55.992;37.252;2022-10-17T00:25:25;100157.00;;;5.95;53.86
46111;BME280;31849;55.992;37.252;2022-10-17T00:30:30;100147.97;;;6.09;54.13
46111;BME280;31849;55.992;37.252;2022-10-17T00:35:35;100130.63;;;6.05;54.44
46111;BME280;31849;55.992;37.252;2022-10-17T00:40:39;100142.75;;;6.08;53.81
46111;BME280;31849;55.992;37.252;2022-10-17T00:45:45;100132.56;;;6.12;53.41
46111;BME280;31849;55.992;37.252;2022-10-17T00:50:49;100127.66;;;6.23;53.33
46111;BME280;31849;55.992;37.252;2022-10-17T00:55:53;100123.34;;;6.22;53.58
46111;BME280;31849;55.992;37.252;2022-10-17T01:00:58;100109.34;;;6.14;53.97
46111;BME280;31849;55.992;37.252;2022-10-17T01:06:04;100098.81;;;6.06;54.35
46111;BME280;31849;55.992;37.252;2022-10-17T01:11:16;100090.00;;;5.98;54.57
46111;BME280;31849;55.992;37.252;2022-10-17T01:16:31;100083.97;;;5.97;54.66
46111;BME280;31849;55.992;37.252;2022-10-17T01:21:46;100079.28;;;5.84;54.56
46111;BME280;31849;55.992;37.252;2022-10-17T01:27:16;100068.41;;;5.96;54.14
46111;BME280;31849;55.992;37.252;2022-10-17T01:32:30;100048.63;;;5.96;54.45
46111;BME280;31849;55.992;37.252;2022-10-17T01:37:42;100050.69;;;6.08;53.92
46111;BME280;31849;55.992;37.252;2022-10-17T01:42:54;100047.13;;;6.03;54.09
46111;BME280;31849;55.992;37.252;2022-10-17T01:48:04;100045.31;;;6.01;54.63
46111;BME280;31849;55.992;37.252;2022-10-17T01:53:13;100041.97;;;6.03;53.86
46111;BME280;31849;55.992;37.252;2022-10-17T01:58:23;100034.47;;;5.80;55.21
46111;BME280;31849;55.992;37.252;2022-10-17T02:03:31;100046.59;;;5.85;54.61
46111;BME280;31849;55.992;37.252;2022-10-17T02:08:41;100038.75;;;5.80;54.38
46111;BME280;31849;55.992;37.252;2022-10-17T02:14:05;100030.53;;;5.95;54.73
46111;BME280;31849;55.992;37.252;2022-10-17T02:19:34;100032.47;;;5.70;55.69
46111;BME280;31849;55.992;37.252;2022-10-17T02:24:46;100019.66;;;5.73;55.28
46111;BME280;31849;55.992;37.252;2022-10-17T02:29:56;100017.81;;;5.69;55.06
46111;BME280;31849;55.992;37.252;2022-10-17T02:35:08;100019.25;;;5.58;55.33
46111;BME280;31849;55.992;37.252;2022-10-17T02:40:15;100005.31;;;5.51;56.04
46111;BME280;31849;55.992;37.252;2022-10-17T02:45:23;100009.81;;;5.58;55.32
46111;BME280;31849;55.992;37.252;2022-10-17T02:50:37;100014.91;;;5.55;55.20
46111;BME280;31849;55.992;37.252;2022-10-17T02:55:50;100002.94;;;5.59;55.49
46111;BME280;31849;55.992;37.252;2022-10-17T03:00:55;99991.63;;;5.54;55.66
46111;BME280;31849;55.992;37.252;2022-10-17T03:06:01;99988.75;;;5.43;57.06
46111;BME280;31849;55.992;37.252;2022-10-17T03:11:06;99975.06;;;5.45;54.99
46111;BME280;31849;55.992;37.252;2022-10-17T03:16:09;99970.81;;;5.47;55.80
46111;BME280;31849;55.992;37.252;2022-10-17T03:21:15;99979.44;;;5.48;56.26
46111;BME280;31849;55.992;37.252;2022-10-17T03:26:19;99962.91;;;5.41;55.48
46111;BME280;31849;55.992;37.252;2022-10-17T03:31:23;99965.69;;;5.49;55.91
46111;BME280;31849;55.992;37.252;2022-10-17T03:36:29;99934.81;;;5.52;55.95
46111;BME280;31849;55.992;37.252;2022-10-17T03:41:33;99929.78;;;5.55;55.90
46111;BME280;31849;55.992;37.252;2022-10-17T03:46:37;99931.41;;;5.53;55.68
46111;BME280;31849;55.992;37.252;2022-10-17T03:51:43;99924.94;;;5.69;55.47
46111;BME280;31849;55.992;37.252;2022-10-17T03:56:47;99910.50;;;5.77;55.61
46111;BME280;31849;55.992;37.252;2022-10-17T04:01:50;99891.84;;;5.89;54.57
46111;BME280;31849;55.992;37.252;2022-10-17T04:06:56;99903.91;;;5.89;55.57
46111;BME280;31849;55.992;37.252;2022-10-17T04:12:01;99890.69;;;6.11;54.68
46111;BME280;31849;55.992;37.252;2022-10-17T04:17:04;99890.25;;;5.93;54.99
46111;BME280;31849;55.992;37.252;2022-10-17T04:22:10;99883.00;;;6.14;54.83
46111;BME280;31849;55.992;37.252;2022-10-17T04:27:13;99897.28;;;6.38;54.50
46111;BME280;31849;55.992;37.252;2022-10-17T04:32:17;99874.03;;;6.38;53.96
46111;BME280;31849;55.992;37.252;2022-10-17T04:37:22;99894.28;;;6.58;53.75
46111;BME280;31849;55.992;37.252;2022-10-17T04:42:27;99883.16;;;6.63;53.97
46111;BME280;31849;55.992;37.252;2022-10-17T04:47:31;99873.63;;;6.59;54.17
46111;BME280;31849;55.992;37.252;2022-10-17T04:52:37;99878.69;;;6.55;54.81
46111;BME280;31849;55.992;37.252;2022-10-17T04:57:40;99874.47;;;6.58;54.76
46111;BME280;31849;55.992;37.252;2022-10-17T05:02:44;99865.53;;;6.42;55.02
46111;BME280;31849;55.992;37.252;2022-10-17T05:07:49;99865.53;;;6.42;55.67
46111;BME280;31849;55.992;37.252;2022-10-17T05:12:53;99847.31;;;6.36;56.16
46111;BME280;31849;55.992;37.252;2022-10-17T05:17:56;99846.84;;;6.56;55.12
46111;BME280;31849;55.992;37.252;2022-10-17T05:23:02;99854.47;;;6.48;56.54
46111;BME280;31849;55.992;37.252;2022-10-17T05:28:06;99834.53;;;6.42;55.96
46111;BME280;31849;55.992;37.252;2022-10-17T05:33:10;99836.53;;;6.57;55.84
46111;BME280;31849;55.992;37.252;2022-10-17T05:38:14;99839.31;;;6.66;55.47
46111;BME280;31849;55.992;37.252;2022-10-17T05:43:18;99856.88;;;6.83;55.48
46111;BME280;31849;55.992;37.252;2022-10-17T05:48:22;99851.25;;;7.06;54.34
46111;BME280;31849;55.992;37.252;2022-10-17T05:53:30;99857.25;;;7.04;54.28
46111;BME280;31849;55.992;37.252;2022-10-17T05:58:34;99854.03;;;7.16;53.98
46111;BME280;31849;55.992;37.252;2022-10-17T06:03:51;99844.66;;;7.21;54.68
46111;BME280;31849;55.992;37.252;2022-10-17T06:08:56;99848.16;;;7.27;54.50
46111;BME280;31849;55.992;37.252;2022-10-17T06:14:00;99846.47;;;7.29;54.37
46111;BME280;31849;55.992;37.252;2022-10-17T06:19:04;99829.28;;;7.31;55.12
46111;BME280;31849;55.992;37.252;2022-10-17T06:24:09;99810.38;;;7.35;54.21
46111;BME280;31849;55.992;37.252;2022-10-17T06:29:13;99799.31;;;7.45;54.65
46111;BME280;31849;55.992;37.252;2022-10-17T06:34:17;99785.16;;;7.78;53.58
46111;BME280;31849;55.992;37.252;2022-10-17T06:39:22;99784.97;;;8.30;52.54
46111;BME280;31849;55.992;37.252;2022-10-17T06:44:28;99805.16;;;8.57;52.37
46111;BME280;31849;55.992;37.252;2022-10-17T06:49:33;99787.03;;;8.60;52.37
46111;BME280;31849;55.992;37.252;2022-10-17T06:54:38;99795.13;;;8.88;51.54
46111;BME280;31849;55.992;37.252;2022-10-17T06:59:41;99792.25;;;8.63;51.78
46111;BME280;31849;55.992;37.252;2022-10-17T07:04:46;99783.56;;;8.55;51.75
46111;BME280;31849;55.992;37.252;2022-10-17T07:09:51;99793.00;;;8.53;51.89
46111;BME280;31849;55.992;37.252;2022-10-17T07:14:55;99768.53;;;8.31;51.69
46111;BME280;31849;55.992;37.252;2022-10-17T07:19:59;99748.91;;;8.47;51.77
46111;BME280;31849;55.992;37.252;2022-10-17T07:25:07;99768.94;;;8.63;51.06
46111;BME280;31849;55.992;37.252;2022-10-17T07:30:13;99764.09;;;8.99;50.49
46111;BME280;31849;55.992;37.252;2022-10-17T07:35:17;99756.25;;;8.93;51.01
46111;BME280;31849;55.992;37.252;2022-10-17T07:40:23;99789.03;;;8.86;50.72
46111;BME280;31849;55.992;37.252;2022-10-17T07:45:27;99777.03;;;8.96;50.79
46111;BME280;31849;55.992;37.252;2022-10-17T07:50:32;99783.16;;;9.03;50.76
46111;BME280;31849;55.992;37.252;2022-10-17T07:55:37;99781.31;;;8.91;50.49
46111;BME280;31849;55.992;37.252;2022-10-17T08:00:41;99767.47;;;8.92;50.67
46111;BME280;31849;55.992;37.252;2022-10-17T08:05:45;99778.19;;;9.32;50.21
46111;BME280;31849;55.992;37.252;2022-10-17T08:10:51;99771.19;;;9.20;50.47
46111;BME280;31849;55.992;37.252;2022-10-17T08:15:58;99771.97;;;9.11;50.55
46111;BME280;31849;55.992;37.252;2022-10-17T08:21:03;99742.41;;;8.89;50.91
46111;BME280;31849;55.992;37.252;2022-10-17T08:26:10;99741.69;;;9.06;50.61
46111;BME280;31849;55.992;37.252;2022-10-17T08:31:16;99747.06;;;9.32;50.19
46111;BME280;31849;55.992;37.252;2022-10-17T08:36:20;99735.97;;;9.53;50.05
46111;BME280;31849;55.992;37.252;2022-10-17T08:41:40;99748.97;;;9.56;49.73
46111;BME280;31849;55.992;37.252;2022-10-17T08:46:48;99728.84;;;9.26;50.88
46111;BME280;31849;55.992;37.252;2022-10-17T08:51:57;99753.09;;;9.26;52.34
46111;BME280;31849;55.992;37.252;2022-10-17T08:57:11;99774.63;;;9.18;53.93
46111;BME280;31849;55.992;37.252;2022-10-17T09:02:36;99782.16;;;8.88;55.00
46111;BME280;31849;55.992;37.252;2022-10-17T09:07:47;99777.72;;;8.76;55.24
46111;BME280;31849;55.992;37.252;2022-10-17T09:13:06;99739.69;;;8.77;55.24
46111;BME280;31849;55.992;37.252;2022-10-17T09:18:17;99752.66;;;8.80;55.50
46111;BME280;31849;55.992;37.252;2022-10-17T09:23:25;99737.22;;;8.91;55.30
46111;BME280;31849;55.992;37.252;2022-10-17T09:28:33;99715.44;;;8.69;55.81
46111;BME280;31849;55.992;37.252;2022-10-17T09:33:39;99719.13;;;8.98;55.65
46111;BME280;31849;55.992;37.252;2022-10-17T09:38:56;99715.75;;;9.09;55.17
46111;BME280;31849;55.992;37.252;2022-10-17T09:44:13;99713.91;;;8.92;56.20
46111;BME280;31849;55.992;37.252;2022-10-17T09:49:19;99692.28;;;8.95;56.00
46111;BME280;31849;55.992;37.252;2022-10-17T09:54:38;99683.69;;;8.99;56.27
46111;BME280;31849;55.992;37.252;2022-10-17T09:59:46;99688.06;;;9.06;56.33
46111;BME280;31849;55.992;37.252;2022-10-17T10:04:56;99684.44;;;8.83;57.31
46111;BME280;31849;55.992;37.252;2022-10-17T10:10:23;99684.50;;;8.92;57.38
46111;BME280;31849;55.992;37.252;2022-10-17T10:15:33;99682.06;;;9.10;57.29
46111;BME280;31849;55.992;37.252;2022-10-17T10:20:39;99686.94;;;8.72;58.52
46111;BME280;31849;55.992;37.252;2022-10-17T10:25:54;99676.59;;;8.75;58.25
46111;BME280;31849;55.992;37.252;2022-10-17T10:31:02;99644.69;;;8.84;58.91
46111;BME280;31849;55.992;37.252;2022-10-17T10:36:08;99655.13;;;8.93;58.21
46111;BME280;31849;55.992;37.252;2022-10-17T10:41:13;99651.53;;;8.77;58.76
46111;BME280;31849;55.992;37.252;2022-10-17T10:46:19;99651.72;;;9.00;58.77
46111;BME280;31849;55.992;37.252;2022-10-17T10:51:28;99662.13;;;9.05;58.86
46111;BME280;31849;55.992;37.252;2022-10-17T10:56:36;99659.47;;;8.95;58.75
46111;BME280;31849;55.992;37.252;2022-10-17T11:01:47;99646.47;;;8.92;59.96
46111;BME280;31849;55.992;37.252;2022-10-17T11:06:56;99645.59;;;8.92;59.65
46111;BME280;31849;55.992;37.252;2022-10-17T11:12:05;99650.75;;;8.86;59.53
46111;BME280;31849;55.992;37.252;2022-10-17T11:17:26;99644.75;;;8.94;60.18
46111;BME280;31849;55.992;37.252;2022-10-17T11:22:37;99622.28;;;8.98;59.47
46111;BME280;31849;55.992;37.252;2022-10-17T11:27:44;99615.34;;;8.91;60.32
46111;BME280;31849;55.992;37.252;2022-10-17T11:32:52;99597.25;;;8.98;60.45
46111;BME280;31849;55.992;37.252;2022-10-17T11:38:05;99586.69;;;8.71;62.22
46111;BME280;31849;55.992;37.252;2022-10-17T11:43:14;99588.50;;;8.86;61.26
46111;BME280;31849;55.992;37.252;2022-10-17T11:48:24;99586.63;;;8.61;62.82
46111;BME280;31849;55.992;37.252;2022-10-17T11:53:33;99599.66;;;8.74;61.83
46111;BME280;31849;55.992;37.252;2022-10-17T11:58:50;99617.97;;;8.95;61.64
46111;BME280;31849;55.992;37.252;2022-10-17T12:04:14;99612.69;;;8.85;62.51
46111;BME280;31849;55.992;37.252;2022-10-17T12:09:25;99629.16;;;8.90;61.92
46111;BME280;31849;55.992;37.252;2022-10-17T12:14:40;99625.72;;;8.89;62.54
46111;BME280;31849;55.992;37.252;2022-10-17T12:19:46;99610.16;;;8.89;63.10
46111;BME280;31849;55.992;37.252;2022-10-17T12:24:58;99628.38;;;9.00;63.24
46111;BME280;31849;55.992;37.252;2022-10-17T12:30:13;99630.19;;;9.15;62.08
46111;BME280;31849;55.992;37.252;2022-10-17T12:35:22;99637.13;;;9.13;62.44
46111;BME280;31849;55.992;37.252;2022-10-17T12:40:52;99637.13;;;9.14;63.27
46111;BME280;31849;55.992;37.252;2022-10-17T12:45:58;99663.91;;;9.15;62.85
46111;BME280;31849;55.992;37.252;2022-10-17T12:51:05;99658.78;;;9.23;63.09
46111;BME280;31849;55.992;37.252;2022-10-17T12:56:35;99670.88;;;9.21;63.48
46111;BME280;31849;55.992;37.252;2022-10-17T13:01:43;99675.28;;;9.31;63.33
46111;BME280;31849;55.992;37.252;2022-10-17T13:06:53;99675.25;;;9.26;63.40
46111;BME280;31849;55.992;37.252;2022-10-17T13:11:59;99652.75;;;9.28;63.19
46111;BME280;31849;55.992;37.252;2022-10-17T13:17:05;99643.22;;;9.23;63.42
46111;BME280;31849;55.992;37.252;2022-10-17T13:22:10;99632.78;;;9.15;63.57
46111;BME280;31849;55.992;37.252;2022-10-17T13:27:23;99616.25;;;8.97;65.02
46111;BME280;31849;55.992;37.252;2022-10-17T13:32:35;99586.81;;;8.89;64.66
46111;BME280;31849;55.992;37.252;2022-10-17T13:37:42;99605.75;;;8.74;65.57
46111;BME280;31849;55.992;37.252;2022-10-17T13:42:46;99607.34;;;8.60;65.47
46111;BME280;31849;55.992;37.252;2022-10-17T13:47:50;99589.91;;;8.42;65.74
46111;BME280;31849;55.992;37.252;2022-10-17T13:53:18;99596.63;;;8.23;68.80
46111;BME280;31849;55.992;37.252;2022-10-17T13:58:22;99595.81;;;8.28;67.17
46111;BME280;31849;55.992;37.252;2022-10-17T14:03:25;99592.28;;;8.20;67.43
46111;BME280;31849;55.992;37.252;2022-10-17T14:08:53;99593.19;;;8.24;66.59
46111;BME280;31849;55.992;37.252;2022-10-17T14:13:59;99596.47;;;8.07;67.92
46111;BME280;31849;55.992;37.252;2022-10-17T14:19:03;99599.00;;;8.00;67.52
46111;BME280;31849;55.992;37.252;2022-10-17T14:24:15;99601.41;;;7.81;67.53
46111;BME280;31849;55.992;37.252;2022-10-17T14:29:27;99597.69;;;7.59;69.95
46111;BME280;31849;55.992;37.252;2022-10-17T14:34:33;99589.03;;;7.57;68.59
46111;BME280;31849;55.992;37.252;2022-10-17T14:39:39;99590.72;;;7.53;69.69
46111;BME280;31849;55.992;37.252;2022-10-17T14:44:47;99609.84;;;7.66;69.00
46111;BME280;31849;55.992;37.252;2022-10-17T14:50:02;99616.03;;;7.81;70.68
46111;BME280;31849;55.992;37.252;2022-10-17T14:55:21;99624.50;;;7.66;70.96
46111;BME280;31849;55.992;37.252;2022-10-17T15:00:25;99636.13;;;7.99;68.90
46111;BME280;31849;55.992;37.252;2022-10-17T15:05:28;99633.59;;;8.05;69.00
46111;BME280;31849;55.992;37.252;2022-10-17T15:10:35;99624.75;;;7.86;69.39
46111;BME280;31849;55.992;37.252;2022-10-17T15:15:42;99640.38;;;7.95;68.98
46111;BME280;31849;55.992;37.252;2022-10-17T15:20:46;99633.38;;;7.86;70.10
46111;BME280;31849;55.992;37.252;2022-10-17T15:26:15;99638.53;;;7.85;70.25
46111;BME280;31849;55.992;37.252;2022-10-17T15:31:21;99637.78;;;7.95;69.75
46111;BME280;31849;55.992;37.252;2022-10-17T15:36:26;99643.81;;;7.96;69.40
46111;BME280;31849;55.992;37.252;2022-10-17T15:41:32;99631.78;;;7.98;70.19
46111;BME280;31849;55.992;37.252;2022-10-17T15:46:38;99644.84;;;8.10;70.68
46111;BME280;31849;55.992;37.252;2022-10-17T15:51:43;99643.34;;;8.32;69.70
46111;BME280;31849;55.992;37.252;2022-10-17T15:56:51;99639.25;;;8.53;69.86
46111;BME280;31849;55.992;37.252;2022-10-17T16:01:55;99651.44;;;8.65;69.33
46111;BME280;31849;55.992;37.252;2022-10-17T16:06:58;99647.13;;;8.65;69.64
46111;BME280;31849;55.992;37.252;2022-10-17T16:12:04;99628.22;;;8.78;69.03
46111;BME280;31849;55.992;37.252;2022-10-17T16:17:09;99639.50;;;8.84;69.25
46111;BME280;31849;55.992;37.252;2022-10-17T16:22:19;99642.19;;;8.99;68.94
46111;BME280;31849;55.992;37.252;2022-10-17T16:27:24;99645.63;;;9.00;68.88
46111;BME280;31849;55.992;37.252;2022-10-17T16:32:28;99650.91;;;9.07;68.08
46111;BME280;31849;55.992;37.252;2022-10-17T16:37:32;99649.25;;;9.22;68.05
46111;BME280;31849;55.992;37.252;2022-10-17T16:42:38;99644.03;;;9.17;68.57
46111;BME280;31849;55.992;37.252;2022-10-17T16:47:41;99651.91;;;9.26;67.82
46111;BME280;31849;55.992;37.252;2022-10-17T16:52:45;99667.38;;;9.19;67.60
46111;BME280;31849;55.992;37.252;2022-10-17T16:57:50;99663.94;;;9.20;68.45
46111;BME280;31849;55.992;37.252;2022-10-17T17:02:53;99677.66;;;9.02;69.49
46111;BME280;31849;55.992;37.252;2022-10-17T17:07:56;99682.94;;;9.14;68.68
46111;BME280;31849;55.992;37.252;2022-10-17T17:13:01;99684.69;;;9.18;68.58
46111;BME280;31849;55.992;37.252;2022-10-17T17:18:05;99674.41;;;9.33;68.65
46111;BME280;31849;55.992;37.252;2022-10-17T17:23:09;99675.28;;;9.32;68.47
46111;BME280;31849;55.992;37.252;2022-10-17T17:28:19;99677.03;;;9.38;68.83
46111;BME280;31849;55.992;37.252;2022-10-17T17:33:24;99688.28;;;9.39;68.69
46111;BME280;31849;55.992;37.252;2022-10-17T17:38:29;99690.84;;;9.31;68.23
46111;BME280;31849;55.992;37.252;2022-10-17T17:43:35;99695.06;;;9.18;69.36
46111;BME280;31849;55.992;37.252;2022-10-17T17:48:40;99679.53;;;9.21;69.51
46111;BME280;31849;55.992;37.252;2022-10-17T17:53:44;99681.16;;;9.11;69.59
46111;BME280;31849;55.992;37.252;2022-10-17T17:58:54;99680.34;;;9.17;69.12
46111;BME280;31849;55.992;37.252;2022-10-17T18:04:00;99700.06;;;8.93;70.41
46111;BME280;31849;55.992;37.252;2022-10-17T18:09:05;99690.63;;;9.00;70.27
46111;BME280;31849;55.992;37.252;2022-10-17T18:14:11;99697.47;;;8.93;70.48
46111;BME280;31849;55.992;37.252;2022-10-17T18:19:15;99706.13;;;8.94;70.09
46111;BME280;31849;55.992;37.252;2022-10-17T18:24:19;99696.59;;;8.90;71.62
46111;BME280;31849;55.992;37.252;2022-10-17T18:29:25;99688.66;;;8.73;71.32
46111;BME280;31849;55.992;37.252;2022-10-17T18:34:28;99702.50;;;8.75;71.03
46111;BME280;31849;55.992;37.252;2022-10-17T18:39:32;99689.41;;;8.61;71.52
46111;BME280;31849;55.992;37.252;2022-10-17T18:44:37;99705.94;;;8.74;71.37
46111;BME280;31849;55.992;37.252;2022-10-17T18:49:41;99705.03;;;8.67;71.48
46111;BME280;31849;55.992;37.252;2022-10-17T18:54:46;99704.13;;;8.62;72.32
46111;BME280;31849;55.992;37.252;2022-10-17T18:59:50;99712.75;;;8.61;71.35
46111;BME280;31849;55.992;37.252;2022-10-17T19:04:54;99716.09;;;8.49;71.67
46111;BME280;31849;55.992;37.252;2022-10-17T19:09:58;99716.84;;;8.39;72.41
46111;BME280;31849;55.992;37.252;2022-10-17T19:15:06;99711.56;;;8.34;72.38
46111;BME280;31849;55.992;37.252;2022-10-17T19:20:11;99709.03;;;8.36;72.47
46111;BME280;31849;55.992;37.252;2022-10-17T19:25:14;99711.50;;;8.26;72.80
46111;BME280;31849;55.992;37.252;2022-10-17T19:30:20;99726.13;;;8.21;72.83
46111;BME280;31849;55.992;37.252;2022-10-17T19:35:23;99724.34;;;8.17;72.66
46111;BME280;31849;55.992;37.252;2022-10-17T19:40:27;99721.75;;;8.16;73.20
46111;BME280;31849;55.992;37.252;2022-10-17T19:45:32;99720.00;;;8.16;73.34
46111;BME280;31849;55.992;37.252;2022-10-17T19:50:35;99714.81;;;8.15;73.05
46111;BME280;31849;55.992;37.252;2022-10-17T19:55:42;99717.34;;;8.08;73.43
46111;BME280;31849;55.992;37.252;2022-10-17T20:00:47;99719.84;;;8.01;74.27
46111;BME280;31849;55.992;37.252;2022-10-17T20:05:51;99733.72;;;8.07;73.38
46111;BME280;31849;55.992;37.252;2022-10-17T20:10:54;99725.91;;;8.03;74.10
46111;BME280;31849;55.992;37.252;2022-10-17T20:16:02;99722.44;;;8.02;74.16
46111;BME280;31849;55.992;37.252;2022-10-17T20:21:09;99743.16;;;8.01;73.77
46111;BME280;31849;55.992;37.252;2022-10-17T20:26:15;99741.38;;;7.97;74.47
46111;BME280;31849;55.992;37.252;2022-10-17T20:31:41;99747.44;;;7.99;74.13
46111;BME280;31849;55.992;37.252;2022-10-17T20:36:46;99748.25;;;7.93;73.82
46111;BME280;31849;55.992;37.252;2022-10-17T20:41:49;99753.41;;;7.93;74.09
46111;BME280;31849;55.992;37.252;2022-10-17T20:46:54;99753.28;;;7.84;73.63
46111;BME280;31849;55.992;37.252;2022-10-17T20:52:03;99762.78;;;7.85;73.50
46111;BME280;31849;55.992;37.252;2022-10-17T20:57:07;99748.16;;;7.85;73.93
46111;BME280;31849;55.992;37.252;2022-10-17T21:02:12;99756.78;;;7.86;73.71
46111;BME280;31849;55.992;37.252;2022-10-17T21:07:15;99753.19;;;7.78;75.22
46111;BME280;31849;55.992;37.252;2022-10-17T21:12:19;99738.47;;;7.72;73.69
46111;BME280;31849;55.992;37.252;2022-10-17T21:17:39;99738.47;;;7.72;74.89
46111;BME280;31849;55.992;37.252;2022-10-17T21:22:42;99744.53;;;7.74;73.55
46111;BME280;31849;55.992;37.252;2022-10-17T21:27:46;99730.63;;;7.67;73.96
46111;BME280;31849;55.992;37.252;2022-10-17T21:32:53;99728.88;;;7.65;74.18
46111;BME280;31849;55.992;37.252;2022-10-17T21:37:57;99731.47;;;7.65;74.36
46111;BME280;31849;55.992;37.252;2022-10-17T21:43:00;99741.81;;;7.65;74.54
46111;BME280;31849;55.992;37.252;2022-10-17T21:48:05;99732.34;;;7.65;74.76
46111;BME280;31849;55.992;37.252;2022-10-17T21:53:13;99715.75;;;7.52;75.43
46111;BME280;31849;55.992;37.252;2022-10-17T21:58:16;99712.31;;;7.52;74.91
46111;BME280;31849;55.992;37.252;2022-10-17T22:03:22;99709.72;;;7.52;74.86
46111;BME280;31849;55.992;37.252;2022-10-17T22:08:26;99709.50;;;7.35;74.83
46111;BME280;31849;55.992;37.252;2022-10-17T22:13:30;99714.78;;;7.43;74.51
46111;BME280;31849;55.992;37.252;2022-10-17T22:18:35;99714.00;;;7.48;73.91
46111;BME280;31849;55.992;37.252;2022-10-17T22:23:38;99715.72;;;7.49;74.03
46111;BME280;31849;55.992;37.252;2022-10-17T22:28:42;99711.25;;;7.39;74.92
46111;BME280;31849;55.992;37.252;2022-10-17T22:33:48;99701.75;;;7.35;74.87
46111;BME280;31849;55.992;37.252;2022-10-17T22:38:51;99705.31;;;7.45;74.55
46111;BME280;31849;55.992;37.252;2022-10-17T22:43:55;99696.75;;;7.49;74.02
46111;BME280;31849;55.992;37.252;2022-10-17T22:49:00;99688.28;;;7.61;73.57
46111;BME280;31849;55.992;37.252;2022-10-17T22:54:04;99690.00;;;7.60;73.73
46111;BME280;31849;55.992;37.252;2022-10-17T22:59:07;99688.38;;;7.70;73.48
46111;BME280;31849;55.992;37.252;2022-10-17T23:04:12;99694.50;;;7.73;72.59
46111;BME280;31849;55.992;37.252;2022-10-17T23:09:16;99692.81;;;7.77;72.51
46111;BME280;31849;55.992;37.252;2022-10-17T23:14:20;99690.25;;;7.82;72.53
46111;BME280;31849;55.992;37.252;2022-10-17T23:19:25;99690.31;;;7.86;72.34
46111;BME280;31849;55.992;37.252;2022-10-17T23:24:28;99679.19;;;7.92;71.80
46111;BME280;31849;55.992;37.252;2022-10-17T23:29:32;99693.00;;;7.96;71.34
46111;BME280;31849;55.992;37.252;2022-10-17T23:34:37;99692.13;;;7.93;71.36
46111;BME280;31849;55.992;37.252;2022-10-17T23:39:41;99692.91;;;7.86;72.08
46111;BME280;31849;55.992;37.252;2022-10-17T23:44:44;99682.53;;;7.85;71.63
46111;BME280;31849;55.992;37.252;2022-10-17T23:49:49;99684.38;;;7.93;71.07
46111;BME280;31849;55.992;37.252;2022-10-17T23:54:52;99673.13;;;7.91;71.07
46111;BME280;31849;55.992;37.252;2022-10-17T23:59:56;99669.69;;;7.94;71.14
